Copenhagen Kastrup Airport

EKCH | CPH

Copenhagen , Capital-Region , Denmark

Thursday, October 24th, 2019 | 07:33

Weather

EKCH 240520Z AUTO 13008KT 3800 BR FEW220/// 12/11 Q1012 TEMPO 5000 NSW

Charts

No Charts Available

Gates

119 Available

Runways

3 Available

Events

No events for this airport


New event